Time;durP1;ratioP1;P1;durP2;ratioP2;P2;SDS_P1;SDS_P2;PMS_P1;PMS_P2;Temp;Humidity;BMP_temperature;BMP_pressure;BME280_temperature;BME280_humidity;BME280_pressure;Samples;Min_cycle;Max_cycle;Signal;HPM_P1;HPM_P2
2022/12/24 00:01:11;;;;;;;1.20;1.00;;;24.00;56.20;;;;;;4992512;28;20384;-41
2022/12/24 00:03:44;;;;;;;1.45;0.95;;;24.00;56.20;;;;;;4992378;28;20204;-42
2022/12/24 00:06:19;;;;;;;1.30;1.05;;;24.00;56.10;;;;;;4994555;28;20201;-40
2022/12/24 00:08:50;;;;;;;2.15;1.15;;;24.00;56.00;;;;;;5011120;28;20228;-41
2022/12/24 00:11:21;;;;;;;1.88;0.90;;;24.00;56.00;;;;;;5004124;28;20216;-42
2022/12/24 00:13:52;;;;;;;1.10;0.93;;;24.10;56.10;;;;;;5004262;28;20555;-41
2022/12/24 00:16:22;;;;;;;1.63;1.15;;;24.10;56.20;;;;;;5000385;28;20189;-42
2022/12/24 00:18:57;;;;;;;2.05;1.27;;;24.20;56.30;;;;;;4991962;28;20212;-42
2022/12/24 00:21:27;;;;;;;1.90;1.20;;;24.20;56.30;;;;;;4990779;28;20221;-42
2022/12/24 00:23:58;;;;;;;1.10;0.95;;;24.20;56.30;;;;;;5010921;28;20201;-44
2022/12/24 00:26:29;;;;;;;1.30;0.90;;;24.30;56.30;;;;;;5010688;28;20770;-44
2022/12/24 00:28:59;;;;;;;1.50;0.90;;;24.30;56.30;;;;;;5010797;28;20244;-42
2022/12/24 00:31:30;;;;;;;3.03;1.20;;;24.30;56.30;;;;;;5011172;28;20225;-41
2022/12/24 00:34:03;;;;;;;1.13;0.90;;;24.30;56.30;;;;;;5010822;28;20200;-41
2022/12/24 00:36:34;;;;;;;2.83;1.20;;;24.40;56.20;;;;;;5010976;28;20201;-41
2022/12/24 00:39:04;;;;;;;2.85;1.25;;;24.40;56.20;;;;;;5010893;28;20205;-42
2022/12/24 00:41:35;;;;;;;2.15;1.10;;;24.40;56.10;;;;;;5011150;28;20232;-41
2022/12/24 00:44:08;;;;;;;3.72;1.45;;;24.50;56.10;;;;;;5011033;28;20197;-42
2022/12/24 00:46:40;;;;;;;3.92;1.50;;;24.50;56.10;;;;;;5010863;28;20924;-43
2022/12/24 00:49:14;;;;;;;4.00;1.60;;;24.50;56.10;;;;;;5010052;28;20232;-41
2022/12/24 00:51:45;;;;;;;6.90;2.00;;;24.50;56.00;;;;;;5008958;28;20229;-46
2022/12/24 00:54:16;;;;;;;3.60;1.58;;;24.50;55.80;;;;;;5007600;28;20201;-41
2022/12/24 00:56:46;;;;;;;5.28;1.90;;;24.50;55.60;;;;;;4991278;28;20209;-42
2022/12/24 00:59:17;;;;;;;3.95;2.15;;;24.60;55.50;;;;;;4990203;28;20201;-41
2022/12/24 01:01:48;;;;;;;3.05;1.80;;;24.60;55.30;;;;;;5003383;28;20220;-41
2022/12/24 01:07:07;;;;;;;3.70;1.90;;;24.60;55.10;;;;;;4992662;28;20720;-42
2022/12/24 01:09:38;;;;;;;3.75;1.60;;;24.70;55.10;;;;;;4990700;28;20232;-42
2022/12/24 01:12:09;;;;;;;3.10;1.50;;;24.70;55.10;;;;;;4990340;28;20218;-42
2022/12/24 01:14:40;;;;;;;4.53;1.80;;;24.70;54.90;;;;;;4989988;28;20206;-41
2022/12/24 01:17:11;;;;;;;3.45;1.55;;;24.70;54.90;;;;;;4989421;28;20202;-41
2022/12/24 01:19:43;;;;;;;2.28;1.40;;;24.80;55.00;;;;;;4990279;28;20592;-41
2022/12/24 01:22:14;;;;;;;3.35;1.58;;;24.80;54.70;;;;;;5003792;23;20217;-48
2022/12/24 01:24:45;;;;;;;3.17;1.60;;;24.80;54.80;;;;;;5005509;28;20303;-48
2022/12/24 01:27:16;;;;;;;2.42;1.38;;;24.80;54.80;;;;;;5010722;28;20679;-48
2022/12/24 01:29:47;;;;;;;4.85;1.52;;;24.80;54.80;;;;;;5003068;28;20237;-48
2022/12/24 01:32:18;;;;;;;2.72;1.60;;;24.90;54.80;;;;;;4991203;28;20228;-49
2022/12/24 01:34:50;;;;;;;4.05;1.80;;;24.80;54.60;;;;;;4990880;28;20189;-51
2022/12/24 01:37:21;;;;;;;3.78;1.70;;;24.90;54.60;;;;;;4993156;28;20203;-60
2022/12/24 01:43:22;;;;;;;2.28;1.42;;;24.90;54.50;;;;;;4994774;28;20201;-59
2022/12/24 01:45:53;;;;;;;3.65;1.42;;;25.00;54.40;;;;;;4994874;28;20339;-56
2022/12/24 01:48:35;;;;;;;2.70;1.25;;;25.00;54.50;;;;;;4989352;28;20205;-57
2022/12/24 01:51:14;;;;;;;2.70;1.20;;;25.00;54.30;;;;;;4994536;28;20233;-55
2022/12/24 01:53:51;;;;;;;3.70;1.35;;;25.00;54.30;;;;;;5013058;28;20212;-56
2022/12/24 01:56:25;;;;;;;3.92;1.13;;;25.00;54.30;;;;;;5013583;28;20551;-59
2022/12/24 01:59:01;;;;;;;1.58;1.23;;;25.00;54.30;;;;;;5014598;28;20231;-56
2022/12/24 02:01:31;;;;;;;3.10;1.70;;;25.00;54.20;;;;;;5013597;28;20605;-59
2022/12/24 02:04:04;;;;;;;2.17;1.23;;;25.00;54.10;;;;;;5013857;28;20201;-60
2022/12/24 02:06:36;;;;;;;5.13;1.50;;;25.10;54.30;;;;;;5012432;28;20279;-58
2022/12/24 02:09:07;;;;;;;2.72;1.20;;;25.10;54.20;;;;;;5013915;28;20208;-53
2022/12/24 02:11:42;;;;;;;3.33;1.40;;;25.10;54.20;;;;;;5013883;28;20751;-53
2022/12/24 02:14:15;;;;;;;2.17;1.17;;;25.10;54.30;;;;;;5014249;28;20236;-52
2022/12/24 02:16:54;;;;;;;1.90;0.95;;;25.10;54.30;;;;;;5010268;28;20189;-55
2022/12/24 02:20:04;;;;;;;1.83;1.30;;;25.10;54.80;;;;;;4994487;28;20212;-54
2022/12/24 02:22:52;;;;;;;2.42;1.20;;;25.20;54.30;;;;;;5014527;23;22383;-40
2022/12/24 02:25:42;;;;;;;1.48;1.10;;;25.20;54.10;;;;;;5013262;28;20200;-39
2022/12/24 02:28:22;;;;;;;1.75;1.10;;;25.20;54.00;;;;;;5013742;28;20197;-41
2022/12/24 02:31:00;;;;;;;2.50;1.13;;;25.30;54.10;;;;;;5013034;28;20232;-40
2022/12/24 02:33:36;;;;;;;1.85;1.15;;;25.30;53.90;;;;;;5012945;28;20229;-40
2022/12/24 02:36:13;;;;;;;3.08;1.17;;;25.30;54.10;;;;;;5013553;28;20219;-40
2022/12/24 02:38:49;;;;;;;2.15;0.80;;;25.30;54.00;;;;;;5013983;28;20212;-40
2022/12/24 02:41:25;;;;;;;2.13;1.10;;;25.30;54.00;;;;;;5013203;28;20236;-42
2022/12/24 02:43:58;;;;;;;2.72;1.20;;;25.30;54.00;;;;;;5013773;28;20207;-43
2022/12/24 02:46:34;;;;;;;1.92;1.02;;;25.40;53.90;;;;;;5013024;28;20204;-40
2022/12/24 02:49:05;;;;;;;1.30;0.90;;;25.30;53.90;;;;;;5012091;28;20207;-42
2022/12/24 02:51:36;;;;;;;1.33;1.08;;;25.40;54.00;;;;;;5012667;28;20229;-41
2022/12/24 02:54:07;;;;;;;1.10;1.00;;;25.40;53.90;;;;;;5012481;28;20208;-40
2022/12/24 02:56:55;;;;;;;1.10;0.82;;;25.40;53.90;;;;;;5013385;28;20200;-40
2022/12/24 02:59:46;;;;;;;2.08;0.90;;;25.50;54.00;;;;;;5012559;28;20739;-41
2022/12/24 03:02:26;;;;;;;1.52;0.90;;;25.50;54.00;;;;;;5003269;28;20233;-43
2022/12/24 03:05:03;;;;;;;1.15;0.88;;;25.50;53.90;;;;;;5001985;28;20194;-40
2022/12/24 03:07:38;;;;;;;1.67;0.95;;;25.50;53.70;;;;;;5002615;28;20212;-40
2022/12/24 03:10:21;;;;;;;2.13;0.98;;;25.60;53.70;;;;;;5001613;28;20216;-40
2022/12/24 03:12:54;;;;;;;1.08;0.80;;;25.60;53.60;;;;;;5003088;28;20200;-43
2022/12/24 03:15:27;;;;;;;1.08;0.75;;;25.60;53.60;;;;;;5002443;28;20244;-42
2022/12/24 03:18:02;;;;;;;0.70;0.70;;;25.60;53.50;;;;;;5001329;28;20193;-40
2022/12/24 03:20:38;;;;;;;1.67;0.90;;;25.60;53.40;;;;;;5001136;28;20208;-41
2022/12/24 03:23:09;;;;;;;2.50;1.00;;;25.60;53.40;;;;;;5003103;28;20201;-46
2022/12/24 03:25:43;;;;;;;1.42;1.00;;;25.60;53.50;;;;;;5012162;28;20196;-39
2022/12/24 03:28:19;;;;;;;1.33;0.90;;;25.60;53.50;;;;;;5012274;28;20584;-39
2022/12/24 03:30:50;;;;;;;1.00;0.88;;;25.60;53.60;;;;;;5012221;28;20228;-40
2022/12/24 03:33:23;;;;;;;1.42;0.75;;;25.60;53.60;;;;;;5012368;28;20205;-39
2022/12/24 03:35:54;;;;;;;2.17;1.10;;;25.70;53.70;;;;;;5012162;28;20197;-39
2022/12/24 03:38:25;;;;;;;1.08;0.70;;;25.70;53.50;;;;;;5012364;28;20197;-39
2022/12/24 03:40:55;;;;;;;1.70;0.90;;;25.70;53.50;;;;;;5012168;28;20225;-40
2022/12/24 03:43:26;;;;;;;1.13;1.00;;;25.70;53.40;;;;;;5012294;28;20224;-39
2022/12/24 03:45:57;;;;;;;2.13;0.80;;;25.70;53.50;;;;;;5012142;28;20560;-39
2022/12/24 03:48:29;;;;;;;1.38;0.98;;;25.70;53.40;;;;;;5012093;28;20201;-39
2022/12/24 03:51:00;;;;;;;1.40;0.90;;;25.70;53.30;;;;;;5012058;28;20234;-39
2022/12/24 03:53:31;;;;;;;0.77;0.77;;;25.70;53.50;;;;;;5012262;28;20213;-39
2022/12/24 03:56:01;;;;;;;1.52;0.82;;;25.70;53.40;;;;;;5012065;28;20196;-39
2022/12/24 03:58:32;;;;;;;1.83;0.95;;;25.70;53.40;;;;;;5011679;28;20212;-39
2022/12/24 04:01:03;;;;;;;0.90;0.77;;;25.70;53.40;;;;;;5011554;28;20232;-39
2022/12/24 04:03:35;;;;;;;1.20;1.00;;;25.70;53.30;;;;;;5012341;28;20255;-40
2022/12/24 04:06:08;;;;;;;1.35;0.93;;;25.70;53.30;;;;;;5012008;28;20200;-40
2022/12/24 04:08:39;;;;;;;1.10;0.73;;;25.70;53.40;;;;;;5011890;28;20249;-39
2022/12/24 04:11:11;;;;;;;1.67;1.10;;;25.70;53.40;;;;;;5012396;28;20259;-39
2022/12/24 04:13:43;;;;;;;2.30;0.80;;;25.70;53.40;;;;;;4995660;28;20553;-41
2022/12/24 04:16:16;;;;;;;1.55;1.05;;;25.70;53.30;;;;;;5011677;28;20229;-40
2022/12/24 04:18:48;;;;;;;1.90;1.15;;;25.70;53.40;;;;;;5012274;28;20204;-40
2022/12/24 04:21:19;;;;;;;2.13;0.90;;;25.70;53.30;;;;;;4998121;28;20214;-40
2022/12/24 04:23:50;;;;;;;1.35;0.90;;;25.70;53.30;;;;;;5016973;23;20236;-51
2022/12/24 04:26:21;;;;;;;1.33;0.90;;;25.70;53.30;;;;;;5012106;28;20663;-55
2022/12/24 04:28:55;;;;;;;2.13;1.00;;;25.70;53.30;;;;;;4994313;28;20200;-53
2022/12/24 04:31:27;;;;;;;2.42;1.10;;;25.60;53.20;;;;;;5011141;28;20264;-48
2022/12/24 04:34:01;;;;;;;1.05;0.80;;;25.70;53.20;;;;;;5012100;28;20651;-48
2022/12/24 04:36:33;;;;;;;2.17;0.82;;;25.70;53.20;;;;;;4995416;28;20192;-51
2022/12/24 04:39:04;;;;;;;1.40;1.02;;;25.70;53.20;;;;;;4994422;28;20731;-52
2022/12/24 04:41:35;;;;;;;1.75;0.90;;;25.60;53.20;;;;;;5011861;28;20225;-54
2022/12/24 04:44:06;;;;;;;1.65;1.00;;;25.60;53.20;;;;;;5011584;28;20205;-52
2022/12/24 04:46:36;;;;;;;1.63;0.75;;;25.60;53.20;;;;;;5011255;28;20197;-52
2022/12/24 04:49:09;;;;;;;1.67;1.00;;;25.60;53.30;;;;;;5011798;28;20208;-53
2022/12/24 04:51:40;;;;;;;2.55;1.00;;;25.60;53.20;;;;;;5011353;28;20235;-50
2022/12/24 04:54:11;;;;;;;1.52;1.17;;;25.60;53.20;;;;;;5011643;28;20691;-56
2022/12/24 04:56:42;;;;;;;1.30;1.05;;;25.60;53.30;;;;;;5010893;28;20193;-48
2022/12/24 04:59:12;;;;;;;1.50;0.93;;;25.60;53.30;;;;;;5011231;28;20205;-56
2022/12/24 05:01:43;;;;;;;1.58;0.98;;;25.50;53.30;;;;;;4994534;28;20221;-53
2022/12/24 05:04:16;;;;;;;1.10;1.00;;;25.50;53.20;;;;;;4991681;28;20201;-52
2022/12/24 05:06:46;;;;;;;2.22;1.08;;;25.50;53.20;;;;;;5001110;28;20197;-51
2022/12/24 05:09:17;;;;;;;1.77;1.30;;;25.50;53.30;;;;;;5011079;28;20197;-54
2022/12/24 05:11:48;;;;;;;1.75;1.10;;;25.50;53.30;;;;;;5010502;28;20228;-57
2022/12/24 05:14:18;;;;;;;1.05;0.90;;;25.50;53.30;;;;;;5011672;28;20200;-51
2022/12/24 05:16:49;;;;;;;3.45;1.40;;;25.40;53.30;;;;;;5011530;28;20197;-51
2022/12/24 05:19:22;;;;;;;1.35;1.13;;;25.40;53.30;;;;;;5011247;28;20201;-50
2022/12/24 05:27:23;;;;;;;2.10;1.20;;;25.30;53.30;;;;;;5011155;28;20246;-40
2022/12/24 05:29:53;;;;;;;2.45;1.27;;;25.30;53.30;;;;;;5011046;28;20196;-40
2022/12/24 05:32:24;;;;;;;1.33;1.20;;;25.30;53.40;;;;;;5010723;28;20229;-39
2022/12/24 05:34:57;;;;;;;1.55;1.00;;;25.30;53.40;;;;;;5010548;28;20197;-40
2022/12/24 05:37:27;;;;;;;1.48;1.17;;;25.30;53.40;;;;;;5010745;28;20209;-40
2022/12/24 05:39:58;;;;;;;1.50;1.05;;;25.30;53.40;;;;;;5010286;28;20193;-40
2022/12/24 05:42:29;;;;;;;1.98;1.05;;;25.30;53.40;;;;;;5010188;28;20236;-40
2022/12/24 05:44:59;;;;;;;1.60;1.05;;;25.30;53.40;;;;;;5010644;28;20200;-40
2022/12/24 05:47:31;;;;;;;1.85;0.93;;;25.30;53.40;;;;;;5010537;28;20216;-39
2022/12/24 05:50:11;;;;;;;2.17;1.00;;;25.30;53.40;;;;;;5010192;28;20591;-40
2022/12/24 05:55:27;;;;;;;1.90;1.10;;;25.30;53.40;;;;;;5010081;28;20211;-40
2022/12/24 05:57:58;;;;;;;1.30;1.10;;;25.30;53.40;;;;;;5010643;28;20204;-44
2022/12/24 06:00:28;;;;;;;1.92;1.20;;;25.30;53.50;;;;;;5010712;28;20211;-39
2022/12/24 06:02:59;;;;;;;1.63;0.93;;;25.30;53.50;;;;;;5010743;28;20570;-39
2022/12/24 06:05:32;;;;;;;1.60;0.90;;;25.30;53.50;;;;;;5011113;28;20208;-39
2022/12/24 06:08:02;;;;;;;1.92;1.13;;;25.40;53.60;;;;;;5010743;28;20653;-40
2022/12/24 06:10:33;;;;;;;1.50;1.00;;;25.40;53.60;;;;;;5010631;28;20221;-41
2022/12/24 06:13:04;;;;;;;1.55;0.90;;;25.40;53.60;;;;;;5011007;28;20201;-40
2022/12/24 06:15:37;;;;;;;2.42;1.10;;;25.40;53.50;;;;;;5010925;28;20208;-40
2022/12/24 06:18:07;;;;;;;1.27;1.00;;;25.40;53.50;;;;;;5010417;28;20661;-39
2022/12/24 06:20:40;;;;;;;1.90;1.17;;;25.40;53.50;;;;;;5010503;28;20588;-40
2022/12/24 06:23:11;;;;;;;2.05;1.05;;;25.40;53.40;;;;;;5013173;28;20212;-40
2022/12/24 06:25:41;;;;;;;1.10;1.00;;;25.40;53.40;;;;;;5004933;28;20226;-39
2022/12/24 06:28:12;;;;;;;1.63;1.20;;;25.40;53.50;;;;;;4994544;28;20201;-39
2022/12/24 06:30:43;;;;;;;1.83;0.90;;;25.40;53.50;;;;;;4993982;28;20232;-39
2022/12/24 06:33:14;;;;;;;1.05;0.93;;;25.40;53.50;;;;;;4994249;28;20208;-40
2022/12/24 06:35:48;;;;;;;1.52;0.90;;;25.40;53.50;;;;;;4994418;28;20193;-40
2022/12/24 06:38:18;;;;;;;1.55;0.90;;;25.40;53.50;;;;;;4994573;28;20193;-40
2022/12/24 06:40:49;;;;;;;2.70;1.17;;;25.40;53.50;;;;;;4993778;28;20217;-39
2022/12/24 06:43:21;;;;;;;2.88;1.13;;;25.40;53.50;;;;;;4993958;28;20283;-40
2022/12/24 06:45:52;;;;;;;1.23;0.82;;;25.40;53.50;;;;;;4994436;28;20201;-40
2022/12/24 06:48:23;;;;;;;1.58;1.00;;;25.40;53.50;;;;;;4994288;28;20677;-40
2022/12/24 06:50:55;;;;;;;1.60;1.08;;;25.40;53.50;;;;;;4993791;28;20256;-40
2022/12/24 06:53:26;;;;;;;2.90;1.10;;;25.40;53.50;;;;;;4993909;28;20209;-39
2022/12/24 06:56:04;;;;;;;4.10;1.10;;;25.30;53.50;;;;;;5005119;28;20200;-40
2022/12/24 06:58:34;;;;;;;2.45;1.15;;;25.40;54.30;;;;;;4995981;28;20200;-41
2022/12/24 07:01:06;;;;;;;2.78;1.40;;;25.30;53.60;;;;;;4993964;28;20229;-40
2022/12/24 07:03:37;;;;;;;3.53;1.30;;;25.30;53.80;;;;;;4993640;28;20669;-39
2022/12/24 07:06:12;;;;;;;4.18;1.20;;;25.30;53.90;;;;;;4993192;28;20661;-42
2022/12/24 07:08:43;;;;;;;2.65;1.00;;;25.30;54.00;;;;;;4993535;28;20200;-38
2022/12/24 07:11:14;;;;;;;1.80;1.10;;;25.30;54.10;;;;;;4993537;28;20233;-39
2022/12/24 07:13:44;;;;;;;7.25;1.50;;;25.30;54.20;;;;;;4993892;28;20202;-40
2022/12/24 07:16:15;;;;;;;3.13;1.13;;;25.20;54.20;;;;;;4993647;28;20658;-39
2022/12/24 07:18:46;;;;;;;4.65;1.50;;;25.20;54.20;;;;;;4993610;28;20206;-39
2022/12/24 07:21:18;;;;;;;3.33;1.20;;;25.20;54.30;;;;;;4993295;28;20218;-39
2022/12/24 07:23:49;;;;;;;3.25;1.13;;;25.20;54.30;;;;;;5016612;23;20239;-48
2022/12/24 07:26:19;;;;;;;5.70;1.27;;;25.20;54.40;;;;;;5013421;28;20197;-47
2022/12/24 07:28:50;;;;;;;2.92;1.40;;;25.20;54.40;;;;;;5013008;28;20199;-52
2022/12/24 07:31:21;;;;;;;4.22;1.20;;;25.10;54.30;;;;;;5012381;28;20247;-48
2022/12/24 07:33:52;;;;;;;3.40;1.20;;;25.20;54.40;;;;;;5011706;28;20200;-47
2022/12/24 07:36:24;;;;;;;4.95;1.40;;;25.10;54.30;;;;;;5012226;28;20287;-47
2022/12/24 07:38:55;;;;;;;3.70;1.50;;;25.10;54.30;;;;;;5012705;28;20200;-51
2022/12/24 07:41:26;;;;;;;2.97;1.20;;;25.10;54.90;;;;;;5012918;28;20217;-50
2022/12/24 07:43:59;;;;;;;1.80;1.20;;;25.10;54.30;;;;;;5012772;28;20205;-48
2022/12/24 07:46:31;;;;;;;2.40;1.30;;;25.10;54.30;;;;;;4995098;28;20204;-47
2022/12/24 07:49:03;;;;;;;3.28;1.27;;;25.10;54.30;;;;;;4995198;28;20200;-49
2022/12/24 07:51:41;;;;;;;3.97;1.27;;;25.00;54.30;;;;;;5012251;28;20746;-51
2022/12/24 07:54:12;;;;;;;2.72;1.08;;;25.00;54.30;;;;;;4992997;28;20212;-52
2022/12/24 07:56:43;;;;;;;2.80;1.23;;;25.00;54.30;;;;;;4992747;28;20198;-51
2022/12/24 07:59:15;;;;;;;2.50;1.05;;;25.00;54.30;;;;;;4992838;28;20685;-49
2022/12/24 08:01:46;;;;;;;2.85;1.20;;;25.00;54.30;;;;;;4992674;28;20222;-49
2022/12/24 08:04:17;;;;;;;1.80;1.17;;;25.00;54.30;;;;;;4992750;28;20194;-52
2022/12/24 08:06:49;;;;;;;2.38;1.15;;;25.00;54.30;;;;;;4992474;28;20205;-48
2022/12/24 08:09:20;;;;;;;2.78;1.17;;;25.00;54.30;;;;;;4992713;28;20218;-47
2022/12/24 08:11:50;;;;;;;2.53;1.40;;;24.90;54.20;;;;;;4992520;28;20236;-47
2022/12/24 08:14:21;;;;;;;4.03;1.38;;;24.90;54.20;;;;;;5008533;28;20193;-47
2022/12/24 08:16:52;;;;;;;2.08;1.27;;;24.90;54.30;;;;;;5011956;28;20212;-49
2022/12/24 08:19:23;;;;;;;2.35;1.17;;;24.90;54.30;;;;;;5012061;28;20208;-48
2022/12/24 08:21:55;;;;;;;2.03;1.20;;;24.90;54.30;;;;;;5005442;28;20205;-47
2022/12/24 08:24:26;;;;;;;4.90;1.30;;;24.90;54.30;;;;;;5019650;23;20240;-40
2022/12/24 08:26:57;;;;;;;2.35;1.30;;;24.80;54.30;;;;;;5010895;28;20196;-40
2022/12/24 08:29:27;;;;;;;1.38;1.10;;;24.80;54.30;;;;;;5011573;28;20200;-41
2022/12/24 08:31:58;;;;;;;2.72;1.30;;;24.80;54.30;;;;;;5011600;28;20239;-40
2022/12/24 08:34:29;;;;;;;2.28;1.10;;;24.80;54.30;;;;;;5011507;28;20196;-40
2022/12/24 08:37:01;;;;;;;2.67;1.15;;;24.80;54.30;;;;;;5011357;28;20208;-40
2022/12/24 08:39:32;;;;;;;1.70;1.15;;;24.70;54.30;;;;;;5011223;28;20207;-40
2022/12/24 08:42:03;;;;;;;2.22;1.40;;;24.70;54.30;;;;;;5010844;28;20225;-41
2022/12/24 08:44:33;;;;;;;1.80;1.10;;;24.70;54.30;;;;;;5011515;28;20660;-40
2022/12/24 08:47:04;;;;;;;1.67;1.08;;;24.70;54.30;;;;;;5011454;28;20193;-40
2022/12/24 08:49:35;;;;;;;1.77;1.02;;;24.70;54.30;;;;;;5011547;28;20204;-42
2022/12/24 08:52:07;;;;;;;1.52;0.98;;;24.70;54.30;;;;;;5007455;28;20233;-40
2022/12/24 08:54:38;;;;;;;2.45;1.20;;;24.70;54.30;;;;;;5011310;28;20606;-40
2022/12/24 08:57:09;;;;;;;1.83;1.08;;;24.60;54.80;;;;;;5011575;28;20208;-41
2022/12/24 08:59:40;;;;;;;1.83;1.02;;;24.60;54.20;;;;;;5011685;28;20200;-41
2022/12/24 09:02:11;;;;;;;1.85;1.10;;;24.60;54.20;;;;;;5011456;28;20216;-40
2022/12/24 09:04:42;;;;;;;1.88;1.33;;;24.60;54.30;;;;;;5011309;28;20197;-40
2022/12/24 09:07:15;;;;;;;1.90;1.15;;;24.60;54.20;;;;;;5010835;28;20201;-40
2022/12/24 09:09:46;;;;;;;1.33;0.90;;;24.50;54.30;;;;;;5011317;28;20714;-40
2022/12/24 09:12:16;;;;;;;2.22;1.20;;;24.50;54.30;;;;;;5011243;28;20247;-41
2022/12/24 09:14:47;;;;;;;1.42;0.98;;;24.50;54.30;;;;;;5011195;28;20207;-40
2022/12/24 09:17:18;;;;;;;1.85;1.00;;;24.50;54.40;;;;;;5010965;28;20197;-40
2022/12/24 09:19:49;;;;;;;1.40;0.98;;;24.50;54.30;;;;;;5010936;28;20648;-40
2022/12/24 09:22:30;;;;;;;1.83;1.13;;;24.50;54.30;;;;;;5010575;28;20282;-40
2022/12/24 09:25:03;;;;;;;1.27;1.00;;;24.50;54.30;;;;;;5011179;28;20240;-40
2022/12/24 09:27:35;;;;;;;2.85;1.30;;;24.40;54.20;;;;;;5011019;28;20734;-40
2022/12/24 09:30:07;;;;;;;1.45;1.00;;;24.40;54.20;;;;;;5010333;28;20668;-40
2022/12/24 09:32:38;;;;;;;1.40;1.17;;;24.40;54.20;;;;;;5001950;28;20228;-43
2022/12/24 09:35:09;;;;;;;1.60;1.10;;;24.40;54.30;;;;;;5009193;28;20564;-43
2022/12/24 09:37:42;;;;;;;1.73;0.98;;;24.40;54.30;;;;;;5009396;28;20193;-42
2022/12/24 09:40:24;;;;;;;1.67;1.20;;;24.30;54.30;;;;;;5010733;28;20683;-40
2022/12/24 09:42:56;;;;;;;1.70;1.10;;;24.30;54.30;;;;;;5006173;28;20205;-41
2022/12/24 09:45:31;;;;;;;1.77;1.20;;;24.30;54.30;;;;;;4990705;28;20201;-41
2022/12/24 09:48:07;;;;;;;1.42;1.10;;;24.30;54.30;;;;;;4990228;28;20223;-40
2022/12/24 09:50:44;;;;;;;0.90;0.80;;;24.30;54.30;;;;;;5004214;28;20218;-40
2022/12/24 09:53:23;;;;;;;1.70;1.27;;;24.20;54.30;;;;;;5010135;28;20240;-40
2022/12/24 09:55:57;;;;;;;2.38;0.95;;;24.20;54.30;;;;;;5010495;28;20653;-42
2022/12/24 09:58:32;;;;;;;1.65;1.00;;;24.20;54.30;;;;;;5012369;28;20743;-40
2022/12/24 10:01:03;;;;;;;1.92;1.30;;;24.20;54.30;;;;;;5013799;28;20235;-42
2022/12/24 10:03:34;;;;;;;1.23;1.00;;;24.20;54.30;;;;;;5013410;28;20205;-40
2022/12/24 10:06:12;;;;;;;2.28;1.10;;;24.20;54.30;;;;;;5013332;28;20197;-47
2022/12/24 10:08:58;;;;;;;0.98;0.88;;;24.10;54.30;;;;;;5013865;28;20199;-40
2022/12/24 10:11:37;;;;;;;1.02;0.93;;;24.10;54.30;;;;;;5013637;28;20243;-40
2022/12/24 10:14:19;;;;;;;2.08;1.13;;;24.10;54.30;;;;;;5013779;28;20201;-40
2022/12/24 10:16:57;;;;;;;1.00;1.00;;;24.10;54.30;;;;;;5013157;28;20300;-40
2022/12/24 10:19:38;;;;;;;1.30;1.10;;;24.00;54.30;;;;;;5011255;28;20201;-40
2022/12/24 10:22:19;;;;;;;1.60;1.00;;;24.00;54.30;;;;;;5012761;28;20618;-40
2022/12/24 10:24:57;;;;;;;1.58;1.10;;;24.00;54.40;;;;;;5013921;28;20212;-40
2022/12/24 10:27:33;;;;;;;1.20;1.10;;;24.00;54.40;;;;;;5012312;28;20197;-40
2022/12/24 10:30:08;;;;;;;1.73;1.20;;;24.00;54.40;;;;;;5013371;28;20200;-40
2022/12/24 10:32:38;;;;;;;1.95;0.90;;;24.00;54.40;;;;;;5012626;28;20224;-41
2022/12/24 10:35:20;;;;;;;1.35;1.00;;;23.90;54.30;;;;;;5013508;28;20201;-44
2022/12/24 10:37:54;;;;;;;1.52;0.85;;;23.90;54.40;;;;;;5013420;28;20189;-41
2022/12/24 10:40:35;;;;;;;1.40;1.08;;;23.90;54.40;;;;;;5011672;28;20212;-40
2022/12/24 10:43:15;;;;;;;1.77;1.13;;;23.80;54.40;;;;;;5013002;28;20197;-41
2022/12/24 10:45:50;;;;;;;1.85;0.85;;;23.80;54.40;;;;;;5009528;28;20263;-40
2022/12/24 10:48:27;;;;;;;1.13;0.93;;;23.80;54.40;;;;;;5011510;28;20196;-46
2022/12/24 10:51:01;;;;;;;1.20;0.95;;;23.80;54.40;;;;;;5012766;28;20231;-40
2022/12/24 10:53:42;;;;;;;1.25;1.10;;;23.80;54.40;;;;;;5013665;28;20699;-41
2022/12/24 10:56:18;;;;;;;1.83;1.25;;;23.70;54.50;;;;;;5013481;28;20280;-40
2022/12/24 10:58:53;;;;;;;0.80;0.80;;;23.70;54.50;;;;;;5013338;28;20202;-41
2022/12/24 11:01:43;;;;;;;2.30;1.20;;;23.70;54.50;;;;;;5013566;28;20216;-41
2022/12/24 11:04:19;;;;;;;1.70;0.85;;;23.70;54.50;;;;;;5013493;28;20205;-41
2022/12/24 11:06:58;;;;;;;1.08;0.98;;;23.70;54.50;;;;;;5013418;28;20200;-40
2022/12/24 11:09:31;;;;;;;1.00;0.90;;;23.60;54.40;;;;;;5012273;28;20574;-41
2022/12/24 11:12:05;;;;;;;2.80;1.00;;;23.60;54.40;;;;;;5012804;28;20223;-43
2022/12/24 11:14:38;;;;;;;1.80;1.30;;;23.60;54.40;;;;;;5012821;28;20196;-43
2022/12/24 11:17:09;;;;;;;1.48;1.10;;;23.60;54.50;;;;;;5012724;28;20200;-40
2022/12/24 11:19:41;;;;;;;1.05;0.85;;;23.50;54.40;;;;;;5012941;28;20211;-41
2022/12/24 11:22:21;;;;;;;0.90;0.80;;;23.50;54.50;;;;;;5012746;28;20224;-40
2022/12/24 11:25:01;;;;;;;1.48;1.08;;;23.50;54.50;;;;;;5013196;28;20555;-41
2022/12/24 11:27:44;;;;;;;0.98;0.90;;;23.50;54.60;;;;;;5012125;28;20611;-41
2022/12/24 11:30:29;;;;;;;1.55;1.05;;;23.50;54.60;;;;;;5012133;28;20200;-40
2022/12/24 11:33:18;;;;;;;1.30;1.00;;;23.40;54.60;;;;;;5012136;28;20692;-40
2022/12/24 11:35:53;;;;;;;1.60;0.93;;;23.40;54.60;;;;;;5012608;28;20719;-43
2022/12/24 11:38:28;;;;;;;0.77;0.77;;;23.40;54.60;;;;;;5012414;28;20192;-40
2022/12/24 11:41:05;;;;;;;1.27;1.17;;;23.40;54.60;;;;;;5012196;28;20695;-41
2022/12/24 11:43:47;;;;;;;0.75;0.70;;;23.40;54.50;;;;;;5012377;28;20205;-42
2022/12/24 11:46:23;;;;;;;0.85;0.85;;;23.40;54.50;;;;;;5012195;28;20999;-40
2022/12/24 11:49:15;;;;;;;0.82;0.82;;;23.40;54.60;;;;;;5012155;28;20200;-42
2022/12/24 11:52:22;;;;;;;0.88;0.88;;;23.30;54.60;;;;;;5011709;28;20223;-40
2022/12/24 11:55:15;;;;;;;1.50;0.95;;;23.30;54.60;;;;;;4992428;28;20209;-40
2022/12/24 11:57:55;;;;;;;1.17;1.00;;;23.30;54.60;;;;;;4991826;28;20204;-40
2022/12/24 12:00:28;;;;;;;0.90;0.80;;;23.20;54.60;;;;;;4992942;28;20358;-40
2022/12/24 12:03:03;;;;;;;1.17;1.00;;;23.20;54.60;;;;;;4993014;28;20209;-41
2022/12/24 12:05:36;;;;;;;0.98;0.90;;;23.20;54.60;;;;;;4992974;28;20216;-41
2022/12/24 12:08:15;;;;;;;1.02;0.90;;;23.20;54.70;;;;;;4992529;28;20201;-40
2022/12/24 12:10:47;;;;;;;1.58;1.02;;;23.10;54.60;;;;;;4992615;28;20576;-41
2022/12/24 12:13:20;;;;;;;0.85;0.77;;;23.10;54.60;;;;;;4995202;28;20221;-44
2022/12/24 12:16:03;;;;;;;1.17;0.90;;;23.10;54.60;;;;;;4991818;28;20198;-41
2022/12/24 12:18:37;;;;;;;1.77;0.88;;;23.10;54.70;;;;;;4991710;28;20200;-41
2022/12/24 12:21:13;;;;;;;0.80;0.80;;;23.00;54.60;;;;;;4991631;28;20217;-40
2022/12/24 12:23:53;;;;;;;0.88;0.85;;;23.00;54.60;;;;;;4992564;28;20209;-40
2022/12/24 12:26:27;;;;;;;0.80;0.80;;;23.00;54.60;;;;;;4991700;28;20658;-42
2022/12/24 12:29:01;;;;;;;1.13;1.00;;;23.00;54.60;;;;;;5009773;28;20693;-46
2022/12/24 12:31:38;;;;;;;0.90;0.80;;;23.00;54.60;;;;;;5011531;28;20585;-40
2022/12/24 12:34:12;;;;;;;1.58;0.95;;;22.90;54.60;;;;;;5011819;28;20231;-41
2022/12/24 12:36:49;;;;;;;0.80;0.80;;;22.90;54.60;;;;;;5011592;28;20203;-44
2022/12/24 12:39:20;;;;;;;1.05;0.80;;;22.90;54.70;;;;;;4994869;28;20193;-46
2022/12/24 12:42:00;;;;;;;2.00;1.10;;;22.90;54.70;;;;;;4992024;28;20609;-40
2022/12/24 12:45:00;;;;;;;1.00;0.90;;;22.90;54.70;;;;;;4991635;28;20574;-45
2022/12/24 12:47:52;;;;;;;1.10;1.00;;;22.80;54.70;;;;;;4980320;28;20197;-40
2022/12/24 12:50:29;;;;;;;1.08;0.88;;;22.80;54.70;;;;;;4991883;28;20194;-40
2022/12/24 12:53:25;;;;;;;1.15;1.00;;;22.80;54.70;;;;;;5005265;28;20225;-40
2022/12/24 12:56:03;;;;;;;1.08;0.80;;;22.80;54.70;;;;;;5011171;28;20200;-40
2022/12/24 12:58:37;;;;;;;1.85;0.90;;;22.80;54.70;;;;;;5011382;28;20200;-42
2022/12/24 13:01:14;;;;;;;0.93;0.80;;;22.70;54.60;;;;;;5011066;28;20220;-40
2022/12/24 13:04:20;;;;;;;1.13;0.90;;;22.70;54.60;;;;;;5010542;28;20661;-41
2022/12/24 13:07:24;;;;;;;1.10;0.90;;;22.70;54.70;;;;;;5010622;28;20207;-40
2022/12/24 13:10:33;;;;;;;1.67;1.00;;;22.70;55.30;;;;;;5011088;28;20208;-40
2022/12/24 13:13:23;;;;;;;1.23;0.80;;;22.60;54.70;;;;;;4995479;28;20228;-46
2022/12/24 13:16:14;;;;;;;1.50;0.80;;;22.60;54.80;;;;;;5011288;28;20193;-40
2022/12/24 13:19:08;;;;;;;0.95;0.95;;;22.60;54.80;;;;;;5011154;28;20196;-41
2022/12/24 13:21:44;;;;;;;0.80;0.80;;;22.50;54.80;;;;;;5010691;28;20217;-40
2022/12/24 13:24:19;;;;;;;0.70;0.68;;;22.50;54.70;;;;;;5023363;23;20699;-49
2022/12/24 13:27:05;;;;;;;1.00;0.90;;;22.50;54.80;;;;;;5010620;28;20220;-47
2022/12/24 13:29:53;;;;;;;0.82;0.70;;;22.40;54.70;;;;;;5010207;28;20200;-48
2022/12/24 13:32:52;;;;;;;0.80;0.80;;;22.40;54.70;;;;;;5010278;28;20275;-49
2022/12/24 13:35:36;;;;;;;1.10;0.80;;;22.40;54.70;;;;;;5010852;28;20660;-47
2022/12/24 13:38:45;;;;;;;1.05;0.90;;;22.40;54.70;;;;;;5010985;28;20196;-47
2022/12/24 13:41:51;;;;;;;1.00;0.80;;;22.40;54.70;;;;;;5011061;28;20212;-48